Aérodrome :
LOGIN :

S'inscrire | Disclaimer

   EN    FR    IT 

 










Légende :    VFR   VFR Marginal   IFR   IFR Intensif   IFR Très Intensif
Visi : 
Plafond : 
>= 8 km
>= 3000ft
5 à 8 km
1000 à 3000 ft
1500m à 5 km
500 à 1000 ft
800 à 1500m
200 à 500 ft
< 800m
< 200 ft
Symboles :   Orages  Brouillard  Fortes neiges  Fortes précipitations  Vent > 20 kt
SIGMETs :   Divers  Orages  Givrage  Turbulence  Onde Orograph.  Cendres Volcan.






- Altitude de l'aérodrome : 123 ft
- Code IATA : BLQ


LIPE - Bologna Guglielmo Marconi

DERNIER METAR :
  • 161020Z 28005KT 5000 BR BKN050 08/05 Q1022

METARs EXPIRÉS :
  • 160950Z 26006KT 5000 BR BKN050 08/05 Q1022
  • 160920Z 26005KT 5000 BR BKN050 07/05 Q1022
  • 160850Z 26004KT 5000 BR BKN055 07/05 Q1022
  • 160820Z VRB02KT 5000 BR BKN050 07/05 Q1021
  • 160750Z VRB01KT 5000 BR BKN050 07/05 Q1021

TAF TAF LIPE
Valide du 16 à 06h jusqu'au 17 à 06h UTC


160500Z 1606/1706 VRB05KT 6000 NSC
TEMPO 1700/1706 3000 BR



MET'MAP, la Météo Aéronautique d'un coup d'oeil ! - Copyright ORBIFLY Décembre 2007 - Disclaimer

ORBIFLY MET'MAP TEAM :

Programmation & Développement : Alexandra Zaïnal
Sur une idée originale de : Baudouin d'Aumeries
Assistance à la programmation : Marc-Olivier Méhu
Soutien technique & logistique : Manuel Goepfert

Contact : metmap@orbifly.com




SOURCES & CREDITS :

   NOAA